Time;durP1;ratioP1;P1;durP2;ratioP2;P2;SDS_P1;SDS_P2;PMS_P1;PMS_P2;Temp;Humidity;BMP_temperature;BMP_pressure;BME280_temperature;BME280_humidity;BME280_pressure;Samples;Min_cycle;Max_cycle;Signal;HPM_P1;HPM_P2
2022/07/21 00:01:09;;;;;;;2.35;1.40;;;;;;;26.97;36.43;102055.91;5116774;28;20048;-47
2022/07/21 00:03:38;;;;;;;3.00;1.70;;;;;;;26.95;36.14;102057.63;5099006;28;20027;-43
2022/07/21 00:06:07;;;;;;;3.20;1.73;;;;;;;26.90;36.46;102061.91;5116723;28;20532;-47
2022/07/21 00:08:35;;;;;;;5.20;1.85;;;;;;;26.90;36.29;102061.03;5098803;28;20470;-48
2022/07/21 00:11:04;;;;;;;3.03;1.52;;;;;;;26.75;36.19;102056.31;5117044;28;20438;-42
2022/07/21 00:13:33;;;;;;;2.17;1.38;;;;;;;26.76;36.18;102063.38;5116488;28;20038;-42
2022/07/21 00:16:01;;;;;;;2.63;1.77;;;;;;;26.79;36.19;102059.09;5098711;28;20019;-42
2022/07/21 00:18:30;;;;;;;4.65;1.40;;;;;;;26.76;36.05;102059.00;5116470;28;20382;-42
2022/07/21 00:20:58;;;;;;;1.65;1.35;;;;;;;26.77;36.15;102058.16;5116643;28;20055;-48
2022/07/21 00:23:27;;;;;;;3.33;1.52;;;;;;;26.75;36.13;102065.13;5116662;28;20500;-44
2022/07/21 00:25:56;;;;;;;5.82;1.70;;;;;;;26.79;35.91;102066.06;5116310;28;20394;-54
2022/07/21 00:28:25;;;;;;;1.73;1.25;;;;;;;26.64;36.13;102062.28;5116556;28;20034;-49
2022/07/21 00:30:54;;;;;;;3.05;1.63;;;;;;;26.61;36.21;102058.72;5116435;28;20080;-46
2022/07/21 00:33:23;;;;;;;3.28;1.60;;;;;;;26.60;36.11;102060.44;5116376;28;20023;-43
2022/07/21 00:35:50;;;;;;;3.53;1.58;;;;;;;26.56;35.97;102053.34;5115441;28;20023;-43
2022/07/21 00:38:19;;;;;;;2.75;1.40;;;;;;;26.42;36.21;102044.28;5116132;28;20019;-43
2022/07/21 00:40:47;;;;;;;3.53;1.85;;;;;;;26.60;35.88;102054.31;5115881;28;20076;-43
2022/07/21 00:43:16;;;;;;;2.88;1.60;;;;;;;26.61;35.92;102062.22;5097670;28;20084;-43
2022/07/21 00:45:43;;;;;;;3.80;1.73;;;;;;;26.65;35.75;102060.53;5116403;28;20027;-44
2022/07/21 00:48:12;;;;;;;3.90;1.60;;;;;;;26.63;35.68;102060.50;5115901;28;20123;-43
2022/07/21 00:50:40;;;;;;;5.07;1.88;;;;;;;26.52;35.74;102049.78;5097684;28;20019;-55
2022/07/21 00:53:08;;;;;;;2.63;1.40;;;;;;;26.54;35.70;102049.81;5115828;28;20023;-51
2022/07/21 00:55:37;;;;;;;3.63;1.48;;;;;;;26.55;35.55;102046.34;5097643;28;20032;-47
2022/07/21 00:58:06;;;;;;;3.67;1.50;;;;;;;26.52;35.85;102044.50;5116017;28;20031;-51
2022/07/21 01:00:34;;;;;;;5.93;1.77;;;;;;;26.39;36.03;102024.09;5097394;28;20095;-46
2022/07/21 01:03:03;;;;;;;4.25;1.63;;;;;;;26.41;35.76;102038.16;5116054;28;20502;-48
2022/07/21 01:05:31;;;;;;;4.95;1.88;;;;;;;26.48;35.63;102034.78;5097882;28;20179;-43
2022/07/21 01:08:04;;;;;;;3.33;2.00;;;;;;;26.37;35.90;102020.53;5115608;28;20019;-43
2022/07/21 01:10:33;;;;;;;4.13;1.80;;;;;;;26.48;35.55;102032.16;5115670;28;20020;-43
2022/07/21 01:13:02;;;;;;;4.97;2.08;;;;;;;26.43;35.32;102025.03;5115731;28;20023;-55
2022/07/21 01:15:31;;;;;;;2.20;1.70;;;;;;;26.48;35.33;102026.88;5097778;28;20022;-43
2022/07/21 01:17:59;;;;;;;3.65;1.40;;;;;;;26.39;35.56;102034.63;5115349;28;20027;-48
2022/07/21 01:20:28;;;;;;;2.90;1.33;;;;;;;26.46;35.13;102030.34;5115483;28;20024;-43
2022/07/21 01:22:57;;;;;;;2.72;1.42;;;;;;;26.46;35.21;102025.09;5097434;28;20497;-43
2022/07/21 01:25:26;;;;;;;3.08;1.42;;;;;;;26.42;35.17;102033.78;5115384;28;20050;-52
2022/07/21 01:27:54;;;;;;;3.45;1.55;;;;;;;26.32;35.13;102009.94;5096932;28;20028;-46
2022/07/21 01:30:23;;;;;;;3.72;1.50;;;;;;;26.32;35.31;102015.19;5114931;28;20474;-43
2022/07/21 01:32:51;;;;;;;3.28;1.67;;;;;;;26.29;35.33;102017.75;5115405;28;20096;-46
2022/07/21 01:35:20;;;;;;;3.88;1.75;;;;;;;26.37;34.98;102021.44;5115192;28;20477;-43
2022/07/21 01:37:49;;;;;;;3.78;1.63;;;;;;;26.36;35.03;102013.50;5115114;28;20051;-55
2022/07/21 01:43:06;;;;;;;2.60;1.23;;;;;;;26.47;34.57;102027.78;5108480;28;20053;-46
2022/07/21 01:45:38;;;;;;;2.72;1.42;;;;;;;26.37;34.68;102023.16;5115077;28;20023;-47
2022/07/21 01:48:07;;;;;;;2.13;1.30;;;;;;;26.33;34.73;102016.97;5114844;28;20036;-43
2022/07/21 01:50:35;;;;;;;3.67;1.38;;;;;;;26.19;34.79;102024.56;5114747;28;20035;-43
2022/07/21 01:53:03;;;;;;;2.92;1.45;;;;;;;26.22;34.91;102023.78;5114619;28;20032;-44
2022/07/21 01:55:32;;;;;;;4.03;1.52;;;;;;;26.17;34.74;102021.03;5095431;28;20028;-56
2022/07/21 01:58:02;;;;;;;2.90;1.50;;;;;;;26.24;34.71;102020.31;5096437;28;20031;-45
2022/07/21 02:00:31;;;;;;;3.35;1.38;;;;;;;26.24;34.58;102022.03;5096115;28;20020;-43
2022/07/21 02:03:00;;;;;;;2.45;1.20;;;;;;;26.17;34.77;102017.53;5114813;28;20032;-51
2022/07/21 02:05:28;;;;;;;2.80;1.20;;;;;;;26.08;34.76;102023.44;5114632;28;20023;-43
2022/07/21 02:07:57;;;;;;;3.85;1.48;;;;;;;26.13;34.85;102016.56;5114325;28;20031;-43
2022/07/21 02:10:26;;;;;;;5.38;1.73;;;;;;;26.00;34.88;102015.41;5114040;28;20059;-43
2022/07/21 02:12:54;;;;;;;4.72;1.90;;;;;;;26.09;34.46;102015.56;5096637;28;20385;-43
2022/07/21 02:15:23;;;;;;;3.13;1.70;;;;;;;26.03;34.80;102015.47;5114379;28;20045;-52
2022/07/21 02:17:51;;;;;;;3.13;1.67;;;;;;;26.12;34.70;102009.53;5114191;28;20060;-51
2022/07/21 02:20:20;;;;;;;3.20;1.58;;;;;;;26.13;34.61;102015.69;5113969;28;20023;-42
2022/07/21 02:22:48;;;;;;;2.08;1.20;;;;;;;26.03;34.62;102015.47;5113905;28;20054;-47
2022/07/21 02:25:17;;;;;;;4.60;1.67;;;;;;;26.02;34.68;102013.69;5114078;28;20034;-42
2022/07/21 02:27:47;;;;;;;2.70;1.35;;;;;;;25.92;34.93;102020.50;5114207;28;20028;-42
2022/07/21 02:30:15;;;;;;;3.17;1.45;;;;;;;26.06;34.78;102012.00;5114070;28;20102;-44
2022/07/21 02:32:44;;;;;;;2.72;1.48;;;;;;;25.96;34.71;102015.31;5113956;28;20053;-46
2022/07/21 02:35:13;;;;;;;3.28;1.40;;;;;;;25.93;34.71;102011.75;5095712;28;20023;-53
2022/07/21 02:37:41;;;;;;;2.40;1.10;;;;;;;26.05;34.78;102012.84;5113682;28;20108;-47
2022/07/21 02:40:10;;;;;;;2.35;1.60;;;;;;;26.08;34.80;102016.44;5113830;28;20081;-44
2022/07/21 02:42:39;;;;;;;6.55;1.75;;;;;;;25.92;35.11;102009.06;5096074;28;20023;-55
2022/07/21 02:45:09;;;;;;;2.38;1.13;;;;;;;25.88;35.10;102010.75;5113203;28;20023;-49
2022/07/21 02:47:56;;;;;;;2.67;1.50;;;;;;;25.85;34.95;102002.78;5113921;28;20018;-51
2022/07/21 02:50:27;;;;;;;2.78;1.63;;;;;;;25.94;35.06;102010.00;5104550;28;20092;-46
2022/07/21 02:52:57;;;;;;;2.97;1.50;;;;;;;25.97;35.15;102017.94;5113620;28;20545;-48
2022/07/21 02:55:27;;;;;;;3.70;1.60;;;;;;;25.98;35.16;102013.59;5113391;28;20035;-45
2022/07/21 02:58:15;;;;;;;3.22;1.45;;;;;;;25.84;35.56;102006.28;5113380;28;20429;-51
2022/07/21 03:00:56;;;;;;;2.60;1.30;;;;;;;25.85;35.46;102010.69;5104282;28;20055;-56
2022/07/21 03:03:28;;;;;;;4.10;1.35;;;;;;;25.93;35.33;102019.63;5113570;28;20027;-47
2022/07/21 03:05:56;;;;;;;3.25;1.40;;;;;;;25.86;35.84;102015.09;5113906;28;20020;-55
2022/07/21 03:08:26;;;;;;;4.25;1.63;;;;;;;25.90;35.77;102019.56;5113490;28;20024;-52
2022/07/21 03:10:54;;;;;;;2.78;1.38;;;;;;;25.88;35.70;102023.03;5095612;28;20431;-54
2022/07/21 03:13:23;;;;;;;2.60;1.20;;;;;;;25.91;35.90;102023.06;5113336;28;20466;-52
2022/07/21 03:15:53;;;;;;;2.20;1.23;;;;;;;25.82;36.40;102022.88;5112225;28;20066;-54
2022/07/21 03:18:21;;;;;;;3.90;1.70;;;;;;;25.71;36.51;102007.78;5095482;28;20024;-49
2022/07/21 03:20:50;;;;;;;4.60;1.40;;;;;;;25.77;36.62;102025.41;5113234;28;20038;-47
2022/07/21 03:23:18;;;;;;;2.95;1.35;;;;;;;25.82;36.56;102033.41;5095016;28;20478;-45
2022/07/21 03:25:46;;;;;;;3.08;1.60;;;;;;;25.78;36.44;102027.19;5113490;28;20049;-46
2022/07/21 03:28:15;;;;;;;2.83;1.02;;;;;;;25.93;36.23;102034.50;5113313;28;20447;-49
2022/07/21 03:30:42;;;;;;;1.67;1.00;;;;;;;25.90;36.61;102030.09;5113315;28;20031;-53
2022/07/21 03:33:11;;;;;;;2.03;1.20;;;;;;;25.82;36.64;102015.00;5095389;28;20024;-57
2022/07/21 03:35:40;;;;;;;3.13;1.25;;;;;;;25.81;36.68;102023.72;5113407;28;20047;-55
2022/07/21 03:38:08;;;;;;;2.47;1.10;;;;;;;25.85;36.66;102026.47;5113073;28;20016;-45
2022/07/21 03:40:38;;;;;;;3.08;1.13;;;;;;;25.81;36.89;102026.38;5113453;28;20027;-54
2022/07/21 03:43:08;;;;;;;1.88;1.10;;;;;;;25.84;36.88;102027.31;5112768;28;20474;-43
2022/07/21 03:45:37;;;;;;;2.70;1.35;;;;;;;25.78;36.85;102017.56;5113461;28;20055;-44
2022/07/21 03:48:08;;;;;;;1.75;1.10;;;;;;;25.82;36.98;102026.38;5113122;28;20039;-47
2022/07/21 03:50:37;;;;;;;3.75;1.45;;;;;;;25.88;36.86;102026.53;5113084;28;20055;-51
2022/07/21 03:53:06;;;;;;;2.30;1.20;;;;;;;25.88;36.90;102020.41;5095027;28;20070;-52
2022/07/21 03:55:35;;;;;;;1.95;1.35;;;;;;;25.94;36.83;102026.66;5113256;28;20024;-47
2022/07/21 03:58:05;;;;;;;2.40;1.30;;;;;;;25.91;37.12;102030.94;5112851;28;20023;-50
2022/07/21 04:00:51;;;;;;;3.75;1.38;;;;;;;25.87;37.18;102026.50;5112705;28;20537;-48
2022/07/21 04:03:20;;;;;;;3.78;1.00;;;;;;;25.87;37.19;102034.41;5113153;28;20072;-54
2022/07/21 04:05:47;;;;;;;2.50;1.50;;;;;;;25.92;37.04;102032.72;5113144;28;20501;-46
2022/07/21 04:08:16;;;;;;;2.65;1.10;;;;;;;25.94;37.24;102031.94;5113055;28;20042;-45
2022/07/21 04:10:45;;;;;;;2.58;0.90;;;;;;;25.80;37.41;102036.00;5114060;28;20055;-46
2022/07/21 04:13:15;;;;;;;4.55;1.30;;;;;;;25.75;37.93;102029.75;5116536;28;20107;-55
2022/07/21 04:15:43;;;;;;;2.25;1.13;;;;;;;25.71;37.56;102028.81;5116632;28;20106;-51
2022/07/21 04:18:12;;;;;;;1.70;1.02;;;;;;;25.80;37.92;102038.63;5116418;28;20023;-56
2022/07/21 04:20:40;;;;;;;2.67;1.17;;;;;;;25.83;37.86;102043.94;5116513;28;20024;-49
2022/07/21 04:23:09;;;;;;;2.97;1.30;;;;;;;25.73;37.99;102037.56;5116291;28;20034;-46
2022/07/21 04:25:38;;;;;;;4.43;1.40;;;;;;;25.80;37.88;102038.63;5116643;28;20023;-44
2022/07/21 04:28:07;;;;;;;4.60;1.30;;;;;;;25.79;37.99;102037.72;5098138;28;20024;-55
2022/07/21 04:30:36;;;;;;;2.97;1.15;;;;;;;25.86;37.96;102035.25;5116472;28;20142;-49
2022/07/21 04:33:04;;;;;;;2.95;1.45;;;;;;;25.75;38.21;102030.63;5116382;28;20024;-56
2022/07/21 04:35:33;;;;;;;3.28;1.13;;;;;;;25.74;38.23;102038.47;5116135;28;20518;-51
2022/07/21 04:38:01;;;;;;;3.58;1.45;;;;;;;25.61;38.15;102024.16;5097168;28;20663;-53
2022/07/21 04:40:30;;;;;;;4.78;1.55;;;;;;;25.71;38.53;102036.69;5116145;28;20462;-56
2022/07/21 04:42:58;;;;;;;10.65;1.77;;;;;;;25.69;38.21;102030.50;5116119;28;20042;-51
2022/07/21 04:45:27;;;;;;;8.60;2.00;;;;;;;25.80;38.34;102043.88;5115971;28;20115;-44
2022/07/21 04:47:57;;;;;;;6.97;1.60;;;;;;;25.76;38.46;102044.66;5115782;28;20028;-51
2022/07/21 04:50:27;;;;;;;8.02;1.67;;;;;;;25.77;38.50;102044.69;5115979;28;20482;-50
2022/07/21 04:52:57;;;;;;;5.68;1.55;;;;;;;25.78;38.42;102045.59;5115689;28;20038;-44
2022/07/21 04:55:24;;;;;;;5.28;1.90;;;;;;;25.80;38.35;102041.25;5097861;28;20375;-48
2022/07/21 04:57:53;;;;;;;8.10;1.58;;;;;;;25.71;38.75;102038.41;5115849;28;20028;-46
2022/07/21 05:00:24;;;;;;;6.13;1.80;;;;;;;25.80;38.34;102041.25;5115770;28;20376;-56
2022/07/21 05:02:54;;;;;;;9.23;1.85;;;;;;;25.74;39.00;102046.38;5115494;28;20031;-52
2022/07/21 05:05:23;;;;;;;7.97;1.90;;;;;;;25.71;39.07;102038.41;5115918;28;20428;-46
2022/07/21 05:07:51;;;;;;;7.15;2.17;;;;;;;25.68;39.13;102038.34;5115660;28;20031;-48
2022/07/21 05:10:21;;;;;;;5.60;2.28;;;;;;;25.64;38.77;102047.91;5115578;28;20379;-57
2022/07/21 05:12:49;;;;;;;5.57;1.50;;;;;;;25.65;38.97;102043.53;5115349;28;20111;-46
2022/07/21 05:15:18;;;;;;;4.97;1.73;;;;;;;25.66;38.99;102045.28;5115481;28;20106;-44
2022/07/21 05:17:46;;;;;;;3.38;1.48;;;;;;;25.67;38.85;102037.47;5115279;28;20015;-44
2022/07/21 05:20:15;;;;;;;7.65;1.85;;;;;;;25.66;39.04;102047.91;5097207;28;20440;-44
2022/07/21 05:22:43;;;;;;;5.05;1.13;;;;;;;25.74;38.94;102049.00;5097152;28;20024;-48
2022/07/21 05:25:12;;;;;;;3.05;1.30;;;;;;;25.70;39.13;102047.16;5114985;28;20032;-45
2022/07/21 05:27:41;;;;;;;3.67;1.50;;;;;;;25.62;39.55;102054.84;5114978;28;20032;-56
2022/07/21 05:30:10;;;;;;;5.53;1.40;;;;;;;25.59;39.24;102063.56;5096937;28;20066;-56
2022/07/21 05:32:38;;;;;;;2.58;1.40;;;;;;;25.65;39.52;102054.06;5114905;28;20024;-45
2022/07/21 05:35:10;;;;;;;6.78;1.67;;;;;;;25.65;39.30;102057.56;5096594;28;20024;-46
2022/07/21 05:37:41;;;;;;;6.35;1.50;;;;;;;25.70;39.33;102062.91;5114884;28;20023;-49
2022/07/21 05:40:10;;;;;;;4.95;1.52;;;;;;;25.73;39.17;102070.88;5115224;28;20059;-53
2022/07/21 05:42:39;;;;;;;3.05;1.33;;;;;;;25.74;39.42;102076.16;5114786;28;20042;-44
2022/07/21 05:45:08;;;;;;;6.18;1.50;;;;;;;25.71;39.31;102076.09;5114667;28;20031;-53
2022/07/21 05:47:37;;;;;;;3.80;1.27;;;;;;;25.77;39.42;102070.09;5079720;28;20031;-46
2022/07/21 05:50:06;;;;;;;2.90;1.50;;;;;;;25.74;39.35;102070.91;5114687;28;20027;-50
2022/07/21 05:52:34;;;;;;;5.82;1.42;;;;;;;25.69;39.65;102077.81;5097025;28;20460;-47
2022/07/21 05:55:03;;;;;;;5.32;1.15;;;;;;;25.72;39.58;102079.59;5114726;28;20020;-45
2022/07/21 05:57:31;;;;;;;4.07;1.13;;;;;;;25.69;39.59;102076.91;5096444;28;20050;-49
2022/07/21 06:00:00;;;;;;;1.98;1.00;;;;;;;25.67;39.72;102074.25;5114370;28;20023;-53
2022/07/21 06:02:30;;;;;;;3.33;1.40;;;;;;;25.66;39.77;102076.81;5092664;28;20056;-53
2022/07/21 06:04:57;;;;;;;2.40;1.23;;;;;;;25.60;40.18;102073.22;5094388;28;20047;-44
2022/07/21 06:07:26;;;;;;;3.05;1.40;;;;;;;25.62;39.78;102068.91;5094362;28;20024;-48
2022/07/21 06:09:55;;;;;;;5.85;1.17;;;;;;;25.65;40.04;102078.56;5094001;28;20111;-50
2022/07/21 06:12:23;;;;;;;1.92;1.17;;;;;;;25.64;39.88;102068.91;5093598;28;20032;-45
2022/07/21 06:14:52;;;;;;;2.35;1.23;;;;;;;25.65;39.77;102061.94;5092739;28;20031;-50
2022/07/21 06:17:20;;;;;;;2.97;1.20;;;;;;;25.67;39.81;102068.09;5092286;28;20181;-52
2022/07/21 06:19:49;;;;;;;3.85;1.17;;;;;;;25.67;40.18;102078.59;5094112;28;20020;-44
2022/07/21 06:22:17;;;;;;;2.65;1.20;;;;;;;25.63;39.97;102075.03;5094572;28;20394;-44
2022/07/21 06:24:46;;;;;;;3.20;1.33;;;;;;;25.72;40.09;102084.88;5093607;28;20020;-47
2022/07/21 06:27:15;;;;;;;4.10;1.35;;;;;;;25.66;39.90;102071.56;5093689;28;20099;-47
2022/07/21 06:29:43;;;;;;;5.63;1.20;;;;;;;25.71;39.98;102077.81;5093811;28;20036;-43
2022/07/21 06:32:11;;;;;;;4.00;1.23;;;;;;;25.56;40.43;102079.25;5093543;28;20024;-46
2022/07/21 06:34:40;;;;;;;4.85;1.60;;;;;;;25.50;40.44;102079.09;5091634;28;20028;-56
2022/07/21 06:37:08;;;;;;;3.65;1.52;;;;;;;25.56;40.31;102084.50;5093328;28;20435;-45
2022/07/21 06:39:41;;;;;;;3.08;1.30;;;;;;;25.36;40.41;102049.84;5093466;28;20036;-56
2022/07/21 06:42:10;;;;;;;8.57;1.75;;;;;;;25.51;40.36;102077.38;5093621;28;20028;-54
2022/07/21 06:44:38;;;;;;;5.38;1.80;;;;;;;25.57;40.20;102075.78;5093066;28;20078;-49
2022/07/21 06:47:07;;;;;;;7.65;1.52;;;;;;;25.54;40.47;102078.31;5093336;28;20032;-44
2022/07/21 06:49:35;;;;;;;2.25;1.25;;;;;;;25.61;40.10;102074.09;5093437;28;20028;-49
2022/07/21 06:52:04;;;;;;;5.43;1.27;;;;;;;25.51;40.50;102086.13;5093222;28;20035;-53
2022/07/21 06:54:33;;;;;;;3.80;1.42;;;;;;;25.44;40.01;102065.81;5093328;28;20028;-52
2022/07/21 06:57:01;;;;;;;2.05;1.08;;;;;;;25.59;39.95;102084.59;5092031;28;20024;-47
2022/07/21 06:59:30;;;;;;;3.50;1.10;;;;;;;25.78;39.30;102087.66;5093562;28;20036;-53
2022/07/21 07:01:59;;;;;;;3.97;1.50;;;;;;;25.62;39.91;102086.38;5106308;28;20051;-55
2022/07/21 07:04:34;;;;;;;3.17;1.20;;;;;;;25.39;40.39;102083.16;5113540;28;20039;-49
2022/07/21 07:07:03;;;;;;;4.95;1.10;;;;;;;25.47;40.08;102100.06;5113546;28;20036;-51
2022/07/21 07:09:31;;;;;;;5.65;1.50;;;;;;;25.44;40.29;102097.34;5095706;28;20019;-46
2022/07/21 07:12:03;;;;;;;3.25;1.38;;;;;;;25.41;40.63;102097.22;5112990;28;20027;-56
2022/07/21 07:14:32;;;;;;;2.63;0.98;;;;;;;25.51;40.18;102091.38;5113342;28;20035;-55
2022/07/21 07:17:01;;;;;;;1.77;1.10;;;;;;;25.70;39.39;102091.81;5112986;28;20363;-54
2022/07/21 07:19:29;;;;;;;3.78;1.00;;;;;;;25.63;40.06;102096.94;5113341;28;20126;-46
2022/07/21 07:21:58;;;;;;;6.78;1.25;;;;;;;25.51;40.22;102095.75;5113066;28;20035;-55
2022/07/21 07:24:25;;;;;;;2.70;1.05;;;;;;;25.61;39.88;102087.22;5113158;28;20070;-44
2022/07/21 07:26:54;;;;;;;3.03;1.50;;;;;;;25.60;40.21;102094.25;5112680;28;20438;-56
2022/07/21 07:29:22;;;;;;;5.65;1.77;;;;;;;25.46;40.13;102101.78;5095485;28;20047;-54
2022/07/21 07:31:51;;;;;;;5.72;1.38;;;;;;;25.53;40.30;102104.56;5113124;28;20420;-56
2022/07/21 07:34:19;;;;;;;2.75;1.20;;;;;;;25.51;40.17;102104.50;5113288;28;20019;-51
2022/07/21 07:36:48;;;;;;;4.60;1.35;;;;;;;25.46;40.50;102106.16;5113062;28;20115;-47
2022/07/21 07:39:17;;;;;;;3.58;1.30;;;;;;;25.53;39.84;102094.06;5095185;28;20084;-46
2022/07/21 07:41:46;;;;;;;2.13;1.00;;;;;;;25.84;39.28;102093.03;5112783;28;20064;-48
2022/07/21 07:44:14;;;;;;;2.72;0.93;;;;;;;25.61;40.00;102103.91;5113643;28;20023;-49
2022/07/21 07:46:43;;;;;;;2.40;1.10;;;;;;;25.57;40.00;102106.41;5098746;28;20027;-56
2022/07/21 07:49:12;;;;;;;4.38;1.65;;;;;;;25.45;40.30;102101.75;5117164;28;20447;-45
2022/07/21 07:51:40;;;;;;;2.67;0.95;;;;;;;25.42;40.39;102093.78;5117074;28;20034;-48
2022/07/21 07:54:09;;;;;;;2.72;1.40;;;;;;;25.46;40.32;102100.91;5116547;28;20032;-52
2022/07/21 07:56:37;;;;;;;3.72;1.10;;;;;;;25.47;40.42;102097.44;5116664;28;20055;-56
2022/07/21 07:59:06;;;;;;;3.72;1.08;;;;;;;25.53;40.05;102102.81;5117070;28;20068;-43
2022/07/21 08:01:35;;;;;;;3.70;1.48;;;;;;;25.59;39.84;102099.44;5116250;28;20077;-49
2022/07/21 08:04:04;;;;;;;1.60;0.80;;;;;;;25.70;39.28;102094.44;5116846;28;20039;-50
2022/07/21 08:06:32;;;;;;;2.88;0.90;;;;;;;25.66;39.67;102106.63;5098640;28;20016;-50
2022/07/21 08:09:01;;;;;;;3.80;1.15;;;;;;;25.58;39.78;102095.94;5116817;28;20107;-52
2022/07/21 08:11:30;;;;;;;2.38;1.00;;;;;;;25.56;39.84;102097.63;5116418;28;20047;-55
2022/07/21 08:13:58;;;;;;;2.40;1.00;;;;;;;25.48;39.84;102099.22;5116797;28;20068;-56
2022/07/21 08:16:27;;;;;;;4.20;0.93;;;;;;;25.53;39.76;102087.06;5116009;28;20031;-54
2022/07/21 08:18:55;;;;;;;2.33;1.00;;;;;;;25.57;39.55;102099.41;5116296;28;20023;-45
2022/07/21 08:21:30;;;;;;;2.75;0.95;;;;;;;25.61;39.94;102096.03;5116566;28;20058;-44
2022/07/21 08:23:59;;;;;;;2.53;1.20;;;;;;;25.59;39.89;102091.56;5116645;28;20031;-44
2022/07/21 08:26:28;;;;;;;3.15;0.90;;;;;;;25.71;39.30;102081.38;5116346;28;20047;-52
2022/07/21 08:28:58;;;;;;;2.35;0.88;;;;;;;25.72;39.33;102088.41;5117127;28;20027;-47
2022/07/21 08:31:26;;;;;;;2.70;1.20;;;;;;;25.70;39.38;102089.19;5116416;28;20028;-45
2022/07/21 08:33:55;;;;;;;2.67;1.00;;;;;;;25.70;39.47;102091.81;5098593;28;20031;-55
2022/07/21 08:36:24;;;;;;;2.50;1.15;;;;;;;25.72;39.39;102092.75;5115962;28;20047;-48
2022/07/21 08:38:52;;;;;;;5.07;1.50;;;;;;;25.60;39.55;102073.22;5098021;28;20027;-48
2022/07/21 08:41:21;;;;;;;5.50;1.17;;;;;;;25.70;39.28;102078.69;5115832;28;20024;-53
2022/07/21 08:43:51;;;;;;;2.72;1.00;;;;;;;25.75;39.21;102077.06;5116165;28;20055;-51
2022/07/21 08:46:23;;;;;;;1.58;0.88;;;;;;;25.74;38.96;102072.66;5097376;28;20120;-47
2022/07/21 08:48:52;;;;;;;2.72;1.52;;;;;;;25.78;38.96;102071.88;5081157;28;20436;-48
2022/07/21 08:51:21;;;;;;;4.95;2.55;;;;;;;25.62;39.10;102061.00;5116127;28;20024;-54
2022/07/21 08:53:49;;;;;;;7.45;2.08;;;;;;;25.57;39.10;102064.34;5116081;28;20027;-48
2022/07/21 08:56:18;;;;;;;2.78;1.67;;;;;;;25.60;39.13;102070.59;5096700;28;20410;-51
2022/07/21 08:58:46;;;;;;;6.20;1.75;;;;;;;25.77;38.92;102070.09;5115816;28;20035;-47
2022/07/21 09:01:16;;;;;;;5.90;1.65;;;;;;;25.77;38.44;102072.72;5115339;28;20139;-56
2022/07/21 09:03:44;;;;;;;5.07;1.70;;;;;;;25.84;38.27;102079.88;5115729;28;20041;-48
2022/07/21 09:06:16;;;;;;;3.08;1.60;;;;;;;25.74;38.93;102067.41;5115391;28;20027;-46
2022/07/21 09:08:47;;;;;;;3.55;1.60;;;;;;;25.91;38.25;102079.19;5115507;28;20478;-47
2022/07/21 09:11:28;;;;;;;2.08;1.08;;;;;;;25.82;38.55;102076.31;5115106;28;20035;-47
2022/07/21 09:14:18;;;;;;;2.58;1.40;;;;;;;25.77;39.00;102070.09;5115503;28;20024;-54
2022/07/21 09:16:49;;;;;;;2.55;1.38;;;;;;;25.68;39.19;102069.88;5115091;28;20402;-49
2022/07/21 09:19:21;;;;;;;2.30;1.20;;;;;;;25.69;39.00;102066.38;5115500;28;20085;-50
2022/07/21 09:21:51;;;;;;;3.22;1.65;;;;;;;25.85;38.55;102072.91;5115022;28;20024;-44
2022/07/21 09:24:28;;;;;;;2.63;1.27;;;;;;;25.73;38.90;102068.25;5115184;28;20031;-45
2022/07/21 09:27:08;;;;;;;5.75;1.90;;;;;;;25.71;38.86;102067.31;5115091;28;20031;-52
2022/07/21 09:29:49;;;;;;;3.55;1.52;;;;;;;25.73;38.60;102069.13;5115519;28;20023;-45
2022/07/21 09:32:37;;;;;;;2.55;1.20;;;;;;;25.73;38.63;102063.00;5115167;28;20023;-49
2022/07/21 09:35:09;;;;;;;3.30;1.30;;;;;;;25.66;39.06;102066.31;5115584;28;20085;-44
2022/07/21 09:37:39;;;;;;;3.97;1.45;;;;;;;25.79;38.60;102064.00;5114996;28;20477;-45
2022/07/21 09:40:09;;;;;;;4.10;1.40;;;;;;;25.84;38.00;102071.13;5115455;28;20031;-56
2022/07/21 09:42:40;;;;;;;3.20;1.38;;;;;;;26.00;37.75;102070.59;5114937;28;20118;-50
2022/07/21 09:45:11;;;;;;;3.38;1.25;;;;;;;26.02;37.69;102068.00;5114397;28;20107;-56
2022/07/21 09:47:40;;;;;;;2.58;0.95;;;;;;;25.98;38.07;102064.44;5115041;28;20020;-56
2022/07/21 09:50:12;;;;;;;4.97;1.30;;;;;;;25.88;38.25;102065.97;5096218;28;20030;-48
2022/07/21 09:52:43;;;;;;;3.38;1.40;;;;;;;25.73;38.56;102055.97;5114461;28;20049;-45
2022/07/21 09:55:14;;;;;;;3.22;1.63;;;;;;;25.80;38.38;102054.41;5114985;28;20020;-45
2022/07/21 09:57:44;;;;;;;3.60;1.58;;;;;;;25.72;38.80;102059.50;5114179;28;20110;-47
2022/07/21 10:00:15;;;;;;;2.63;1.58;;;;;;;25.73;38.65;102063.00;5096762;28;20027;-48
2022/07/21 10:02:44;;;;;;;2.35;1.20;;;;;;;25.81;38.49;102064.06;5114521;28;20039;-53
2022/07/21 10:05:16;;;;;;;3.47;1.60;;;;;;;25.75;38.68;102066.53;5096518;28;20382;-54
2022/07/21 10:07:47;;;;;;;2.08;1.38;;;;;;;25.86;38.18;102069.41;5113714;28;20027;-47
2022/07/21 10:10:17;;;;;;;2.83;1.35;;;;;;;25.94;38.00;102070.47;5114182;28;20493;-52
2022/07/21 10:12:47;;;;;;;5.15;1.50;;;;;;;25.91;38.09;102062.50;5114263;28;20031;-45
2022/07/21 10:15:17;;;;;;;1.65;1.00;;;;;;;25.97;38.09;102067.03;5079463;28;20461;-54
2022/07/21 10:17:46;;;;;;;3.05;1.42;;;;;;;25.89;38.00;102072.13;5096063;28;20160;-46
2022/07/21 10:20:20;;;;;;;3.65;1.20;;;;;;;26.03;38.02;102069.78;5114328;28;20098;-45
2022/07/21 10:22:53;;;;;;;2.77;1.07;;;;;;;26.03;38.26;102073.31;5114063;28;20114;-50
2022/07/21 10:25:23;;;;;;;3.80;1.50;;;;;;;25.92;38.27;102072.16;5114018;28;20267;-45
2022/07/21 10:28:11;;;;;;;2.25;1.33;;;;;;;25.87;38.44;102058.94;5114100;28;20062;-46
2022/07/21 10:30:45;;;;;;;3.72;1.60;;;;;;;25.91;38.55;102067.75;5113894;28;20161;-46
2022/07/21 10:33:15;;;;;;;2.17;1.20;;;;;;;25.88;38.54;102065.09;5113452;28;20031;-46
2022/07/21 10:35:45;;;;;;;4.63;1.20;;;;;;;26.11;37.91;102069.94;5113427;28;20043;-47
2022/07/21 10:38:33;;;;;;;2.75;1.48;;;;;;;26.16;37.73;102071.84;5114005;28;20028;-46
2022/07/21 10:41:03;;;;;;;2.42;1.27;;;;;;;26.09;37.94;102078.69;5088971;28;20043;-45
2022/07/21 10:43:32;;;;;;;4.85;1.40;;;;;;;26.06;38.01;102069.84;5113662;28;20112;-51
2022/07/21 10:46:01;;;;;;;8.35;1.30;;;;;;;26.11;37.84;102072.56;5113943;28;20020;-44
2022/07/21 10:48:42;;;;;;;3.00;1.27;;;;;;;25.98;38.35;102069.69;5113701;28;20096;-52
2022/07/21 10:51:14;;;;;;;2.80;1.17;;;;;;;26.04;37.96;102075.09;5113436;28;20108;-45
2022/07/21 10:53:44;;;;;;;2.63;1.30;;;;;;;25.95;38.39;102077.50;5113601;28;20084;-45
2022/07/21 10:56:29;;;;;;;3.80;1.30;;;;;;;25.90;38.20;102071.25;5095159;28;20123;-48
2022/07/21 10:58:57;;;;;;;6.20;1.50;;;;;;;25.77;38.11;102063.09;5113280;28;20413;-47
2022/07/21 11:01:27;;;;;;;3.15;1.33;;;;;;;25.90;38.27;102081.75;5113308;28;20043;-44
2022/07/21 11:04:17;;;;;;;2.55;1.17;;;;;;;25.78;38.44;102079.75;5113540;28;20128;-56
2022/07/21 11:06:46;;;;;;;8.27;2.63;;;;;;;25.80;38.34;102083.31;5089463;28;20039;-46
2022/07/21 11:09:17;;;;;;;42.25;16.35;;;;;;;25.81;38.31;102077.22;5113540;28;20110;-47
2022/07/21 11:11:48;;;;;;;52.63;25.92;;;;;;;25.79;38.70;102084.16;5114126;28;20023;-52
2022/07/21 11:14:20;;;;;;;48.58;24.77;;;;;;;25.79;38.75;102079.78;5113480;28;20063;-50
2022/07/21 11:16:49;;;;;;;57.50;22.65;;;;;;;25.78;38.98;102072.75;5112786;28;20481;-52
2022/07/21 11:19:39;;;;;;;27.58;13.18;;;;;;;26.00;38.18;102074.97;5113854;28;20057;-44
2022/07/21 11:22:19;;;;;;;27.73;15.30;;;;;;;26.02;38.01;102071.53;5117790;28;20115;-44
2022/07/21 11:24:50;;;;;;;31.08;14.20;;;;;;;26.02;38.20;102066.28;5117485;28;20476;-47
2022/07/21 11:27:20;;;;;;;28.60;12.93;;;;;;;26.02;38.38;102068.00;5117408;28;20026;-56
2022/07/21 11:29:50;;;;;;;21.75;10.70;;;;;;;25.99;38.48;102062.66;5117420;28;20035;-55
2022/07/21 11:32:19;;;;;;;15.23;8.20;;;;;;;26.08;38.16;102057.63;5117195;28;20105;-48
2022/07/21 11:34:50;;;;;;;17.13;7.72;;;;;;;26.11;38.13;102049.84;5117520;28;20026;-57
2022/07/21 11:37:31;;;;;;;12.55;6.82;;;;;;;26.27;37.86;102052.78;5117103;28;20028;-51
2022/07/21 11:39:59;;;;;;;14.02;6.50;;;;;;;26.13;38.19;102042.88;5117136;28;20102;-52